DLH19T EDDF-EGPH
Flight info
| Callsign | DLH19T |
|---|---|
| Flight time | N/A |
| Altitude | 34000 |
| Route | OBOKA3W OBOKA Z28 DIBIR DCT BUDIP DCT MIMVA L602 EMLON M79 TENDO DCT AGPED |
| Aircraft | A343/H-SDE2E3FGHIJ4J5M1RWXY/LB1D1 |
Departure
| Time | 2026-04-14 11:17 |
|---|---|
| Airport | Frankfurt Main Airport (EDDF) |
Arrival
| Time | N/A |
|---|---|
| Airport | Edinburgh Airport (EGPH) |
| Time | Latitude | Longitude | Altitude | Speed | Heading |
|---|---|---|---|---|---|
| 2026-04-14 10:52 | 50.04542 | 8.56750 | 363 ft | 0 kts | 294° |
| 2026-04-14 11:07 | 50.04535 | 8.56762 | 362 ft | 4 kts | 217° |
| 2026-04-14 11:07 | 50.04538 | 8.56783 | 357 ft | 4 kts | 283° |
| 2026-04-14 11:07 | 50.04533 | 8.56824 | 363 ft | 4 kts | 276° |
| 2026-04-14 11:08 | 50.04533 | 8.56865 | 358 ft | 4 kts | 254° |
| 2026-04-14 11:08 | 50.04544 | 8.56892 | 362 ft | 2 kts | 198° |
| 2026-04-14 11:08 | 50.04545 | 8.56893 | 362 ft | 3 kts | 197° |
| 2026-04-14 11:10 | 50.04533 | 8.56887 | 353 ft | 6 kts | 197° |
| 2026-04-14 11:10 | 50.04474 | 8.56850 | 362 ft | 12 kts | 214° |
| 2026-04-14 11:10 | 50.04428 | 8.56726 | 363 ft | 13 kts | 249° |
| 2026-04-14 11:11 | 50.04390 | 8.56569 | 360 ft | 18 kts | 250° |
| 2026-04-14 11:11 | 50.04340 | 8.56359 | 360 ft | 22 kts | 249° |
| 2026-04-14 11:11 | 50.04283 | 8.56125 | 358 ft | 24 kts | 250° |
| 2026-04-14 11:11 | 50.04227 | 8.55887 | 358 ft | 23 kts | 250° |
| 2026-04-14 11:12 | 50.04171 | 8.55655 | 363 ft | 22 kts | 249° |
| 2026-04-14 11:12 | 50.04116 | 8.55429 | 369 ft | 23 kts | 249° |
| 2026-04-14 11:12 | 50.04058 | 8.55185 | 370 ft | 25 kts | 250° |
| 2026-04-14 11:12 | 50.03998 | 8.54930 | 369 ft | 25 kts | 250° |
| 2026-04-14 11:13 | 50.03934 | 8.54664 | 367 ft | 27 kts | 249° |
| 2026-04-14 11:13 | 50.03867 | 8.54392 | 371 ft | 27 kts | 243° |
| 2026-04-14 11:13 | 50.03784 | 8.54151 | 373 ft | 24 kts | 249° |
| 2026-04-14 11:13 | 50.03723 | 8.53902 | 369 ft | 25 kts | 249° |
| 2026-04-14 11:14 | 50.03659 | 8.53637 | 370 ft | 27 kts | 249° |
| 2026-04-14 11:14 | 50.03571 | 8.53397 | 372 ft | 25 kts | 212° |
| 2026-04-14 11:14 | 50.03509 | 8.53351 | 374 ft | 0 kts | 204° |
| 2026-04-14 11:14 | 50.03487 | 8.53336 | 373 ft | 6 kts | 203° |
| 2026-04-14 11:15 | 50.03449 | 8.53318 | 377 ft | 6 kts | 189° |
| 2026-04-14 11:15 | 50.03371 | 8.53344 | 380 ft | 14 kts | 152° |
| 2026-04-14 11:15 | 50.03312 | 8.53437 | 380 ft | 11 kts | 127° |
| 2026-04-14 11:15 | 50.03286 | 8.53562 | 379 ft | 14 kts | 88° |
| 2026-04-14 11:16 | 50.03323 | 8.53721 | 376 ft | 17 kts | 69° |
| 2026-04-14 11:16 | 50.03333 | 8.53765 | 376 ft | 0 kts | 69° |
| 2026-04-14 11:16 | 50.03339 | 8.53788 | 377 ft | 15 kts | 69° |
| 2026-04-14 11:16 | 50.03477 | 8.54360 | 375 ft | 97 kts | 69° |
| 2026-04-14 11:17 | 50.03798 | 8.55697 | 374 ft | 163 kts | 67° |
| 2026-04-14 11:17 | 50.04209 | 8.57425 | 1078 ft | 175 kts | 66° |
| 2026-04-14 11:17 | 50.04694 | 8.59213 | 2043 ft | 181 kts | 64° |
| 2026-04-14 11:17 | 50.05273 | 8.60905 | 2907 ft | 177 kts | 48° |
| 2026-04-14 11:18 | 50.06342 | 8.61892 | 3419 ft | 189 kts | 14° |
| 2026-04-14 11:18 | 50.07749 | 8.62247 | 3674 ft | 220 kts | 9° |
| 2026-04-14 11:18 | 50.09357 | 8.62652 | 3962 ft | 244 kts | 7° |
| 2026-04-14 11:18 | 50.11115 | 8.62902 | 4453 ft | 261 kts | 3° |
| 2026-04-14 11:19 | 50.12916 | 8.62978 | 5573 ft | 256 kts | 0° |
| 2026-04-14 11:19 | 50.14692 | 8.62968 | 6569 ft | 254 kts | 359° |
| 2026-04-14 11:19 | 50.16464 | 8.62910 | 7494 ft | 255 kts | 358° |
| 2026-04-14 11:19 | 50.18239 | 8.62825 | 8411 ft | 255 kts | 356° |
| 2026-04-14 11:20 | 50.20011 | 8.62725 | 9376 ft | 254 kts | 355° |
| 2026-04-14 11:20 | 50.21738 | 8.62619 | 10308 ft | 250 kts | 356° |
| 2026-04-14 11:20 | 50.23465 | 8.62509 | 11184 ft | 245 kts | 355° |
| 2026-04-14 11:20 | 50.25140 | 8.62402 | 12113 ft | 237 kts | 355° |
| 2026-04-14 11:21 | 50.26763 | 8.62296 | 13002 ft | 230 kts | 355° |
| 2026-04-14 11:21 | 50.28383 | 8.62159 | 13557 ft | 240 kts | 352° |
| 2026-04-14 11:21 | 50.30079 | 8.61624 | 13859 ft | 257 kts | 338° |
| 2026-04-14 11:21 | 50.31721 | 8.60340 | 14142 ft | 273 kts | 322° |
| 2026-04-14 11:22 | 50.33128 | 8.58247 | 14433 ft | 287 kts | 304° |
| 2026-04-14 11:22 | 50.34114 | 8.55461 | 14728 ft | 300 kts | 289° |
| 2026-04-14 11:22 | 50.34830 | 8.52301 | 15022 ft | 316 kts | 286° |
| 2026-04-14 11:22 | 50.35292 | 8.50093 | 15216 ft | 326 kts | 286° |
| 2026-04-14 11:23 | 50.36018 | 8.46635 | 15499 ft | 342 kts | 287° |
| 2026-04-14 11:23 | 50.36780 | 8.43020 | 15825 ft | 356 kts | 286° |
| 2026-04-14 11:23 | 50.37371 | 8.39218 | 16316 ft | 363 kts | 277° |
| 2026-04-14 11:23 | 50.37503 | 8.35247 | 16907 ft | 367 kts | 266° |
| 2026-04-14 11:24 | 50.37106 | 8.31277 | 17490 ft | 373 kts | 256° |
| 2026-04-14 11:24 | 50.36372 | 8.27335 | 18004 ft | 381 kts | 253° |
| 2026-04-14 11:24 | 50.35560 | 8.23350 | 18590 ft | 385 kts | 253° |
| 2026-04-14 11:24 | 50.34743 | 8.19347 | 19213 ft | 386 kts | 253° |
| 2026-04-14 11:25 | 50.33929 | 8.15338 | 19910 ft | 386 kts | 253° |
| 2026-04-14 11:25 | 50.33115 | 8.11309 | 20445 ft | 390 kts | 253° |
| 2026-04-14 11:25 | 50.32292 | 8.07237 | 20968 ft | 394 kts | 253° |
| 2026-04-14 11:25 | 50.31463 | 8.03128 | 21554 ft | 396 kts | 252° |
| 2026-04-14 11:26 | 50.30655 | 7.99048 | 22151 ft | 398 kts | 254° |
| 2026-04-14 11:26 | 50.30103 | 7.94793 | 22655 ft | 401 kts | 264° |
| 2026-04-14 11:26 | 50.30074 | 7.90419 | 23178 ft | 405 kts | 275° |
| 2026-04-14 11:26 | 50.30620 | 7.86084 | 23711 ft | 408 kts | 286° |
| 2026-04-14 11:27 | 50.31654 | 7.81929 | 24159 ft | 411 kts | 294° |
| 2026-04-14 11:27 | 50.32844 | 7.77840 | 24610 ft | 413 kts | 294° |
| 2026-04-14 11:27 | 50.34116 | 7.73784 | 25028 ft | 416 kts | 299° |
| 2026-04-14 11:27 | 50.35721 | 7.70005 | 25427 ft | 419 kts | 308° |
| 2026-04-14 11:28 | 50.37744 | 7.66690 | 25818 ft | 423 kts | 318° |
| 2026-04-14 11:28 | 50.40105 | 7.64013 | 26232 ft | 426 kts | 328° |
| 2026-04-14 11:28 | 50.42759 | 7.61918 | 26635 ft | 429 kts | 334° |
| 2026-04-14 11:28 | 50.45505 | 7.60022 | 27027 ft | 432 kts | 335° |
| 2026-04-14 11:29 | 50.48270 | 7.58140 | 27415 ft | 434 kts | 335° |
| 2026-04-14 11:29 | 50.51049 | 7.56238 | 27766 ft | 436 kts | 335° |
| 2026-04-14 11:29 | 50.53839 | 7.54316 | 28145 ft | 438 kts | 335° |
| 2026-04-14 11:29 | 50.56551 | 7.52127 | 28500 ft | 440 kts | 328° |
| 2026-04-14 11:30 | 50.59158 | 7.49564 | 28850 ft | 442 kts | 326° |
| 2026-04-14 11:30 | 50.61741 | 7.46927 | 29175 ft | 444 kts | 326° |
| 2026-04-14 11:30 | 50.64323 | 7.44276 | 29725 ft | 442 kts | 326° |
| 2026-04-14 11:30 | 50.66866 | 7.41664 | 30174 ft | 441 kts | 326° |
| 2026-04-14 11:31 | 50.69448 | 7.39009 | 30439 ft | 444 kts | 326° |
| 2026-04-14 11:31 | 50.72021 | 7.36279 | 30671 ft | 446 kts | 323° |
| 2026-04-14 11:31 | 50.74397 | 7.33111 | 30922 ft | 448 kts | 315° |
| 2026-04-14 11:31 | 50.76451 | 7.29399 | 31172 ft | 450 kts | 308° |
| 2026-04-14 11:32 | 50.78331 | 7.25437 | 31415 ft | 452 kts | 306° |
| 2026-04-14 11:32 | 50.80161 | 7.21382 | 31755 ft | 452 kts | 305° |
| 2026-04-14 11:32 | 50.81955 | 7.17311 | 32112 ft | 451 kts | 305° |
| 2026-04-14 11:32 | 50.83740 | 7.13234 | 32470 ft | 450 kts | 305° |
| 2026-04-14 11:33 | 50.85521 | 7.09170 | 32805 ft | 449 kts | 305° |
| 2026-04-14 11:33 | 50.87284 | 7.05159 | 33125 ft | 448 kts | 306° |
| 2026-04-14 11:33 | 50.89060 | 7.01129 | 33638 ft | 444 kts | 306° |
| 2026-04-14 11:34 | 50.92595 | 6.93135 | 34188 ft | 443 kts | 306° |
| 2026-04-14 11:34 | 50.96093 | 6.85211 | 34215 ft | 434 kts | 306° |
| 2026-04-14 11:35 | 50.99526 | 6.77413 | 34212 ft | 433 kts | 306° |
| 2026-04-14 11:35 | 51.02970 | 6.69564 | 34199 ft | 433 kts | 306° |
| 2026-04-14 11:36 | 51.06411 | 6.61697 | 34205 ft | 433 kts | 306° |
| 2026-04-14 11:36 | 51.09817 | 6.53888 | 34208 ft | 427 kts | 306° |
| 2026-04-14 11:37 | 51.13194 | 6.46122 | 34212 ft | 426 kts | 306° |
| 2026-04-14 11:37 | 51.16559 | 6.38348 | 34224 ft | 426 kts | 306° |
| 2026-04-14 11:38 | 51.19918 | 6.30569 | 34220 ft | 425 kts | 306° |
| 2026-04-14 11:38 | 51.23266 | 6.22792 | 34217 ft | 425 kts | 306° |
| 2026-04-14 11:39 | 51.26606 | 6.15012 | 34204 ft | 423 kts | 306° |
| 2026-04-14 11:39 | 51.29871 | 6.07308 | 34206 ft | 421 kts | 304° |
| 2026-04-14 11:40 | 51.33065 | 5.99471 | 34203 ft | 421 kts | 304° |
| 2026-04-14 11:40 | 51.36255 | 5.91598 | 34203 ft | 420 kts | 304° |
| 2026-04-14 11:41 | 51.40058 | 5.84538 | 34208 ft | 419 kts | 316° |
| 2026-04-14 11:41 | 51.44341 | 5.78263 | 34196 ft | 419 kts | 318° |
| 2026-04-14 11:42 | 51.48712 | 5.72086 | 34207 ft | 418 kts | 319° |
| 2026-04-14 11:42 | 51.53074 | 5.65919 | 34208 ft | 417 kts | 318° |
| 2026-04-14 11:43 | 51.57421 | 5.59725 | 34206 ft | 417 kts | 318° |
| 2026-04-14 11:43 | 51.61763 | 5.53505 | 34208 ft | 417 kts | 318° |
| 2026-04-14 11:44 | 51.66080 | 5.47301 | 34207 ft | 417 kts | 318° |
| 2026-04-14 11:44 | 51.70407 | 5.41068 | 34190 ft | 417 kts | 318° |
| 2026-04-14 11:45 | 51.74729 | 5.34824 | 34206 ft | 417 kts | 318° |
| 2026-04-14 11:45 | 51.79037 | 5.28586 | 34196 ft | 415 kts | 318° |
| 2026-04-14 11:46 | 51.83298 | 5.22401 | 34195 ft | 414 kts | 318° |
| 2026-04-14 11:46 | 51.87584 | 5.16161 | 34194 ft | 414 kts | 318° |
| 2026-04-14 11:47 | 51.91865 | 5.09915 | 34189 ft | 414 kts | 318° |
| 2026-04-14 11:47 | 51.96140 | 5.03658 | 34174 ft | 414 kts | 317° |
| 2026-04-14 11:48 | 52.00419 | 4.97379 | 34175 ft | 415 kts | 317° |
| 2026-04-14 11:48 | 52.04691 | 4.91093 | 34188 ft | 414 kts | 317° |
| 2026-04-14 11:49 | 52.08934 | 4.84832 | 34178 ft | 412 kts | 317° |
| 2026-04-14 11:49 | 52.13172 | 4.78561 | 34184 ft | 411 kts | 317° |
| 2026-04-14 11:50 | 52.17401 | 4.72284 | 34180 ft | 411 kts | 317° |
| 2026-04-14 11:50 | 52.21631 | 4.65990 | 34186 ft | 411 kts | 317° |
| 2026-04-14 11:51 | 52.27973 | 4.56524 | 34182 ft | 411 kts | 317° |
| 2026-04-14 11:51 | 52.32170 | 4.50239 | 34188 ft | 411 kts | 317° |
| 2026-04-14 11:52 | 52.36388 | 4.43904 | 34185 ft | 411 kts | 317° |
| 2026-04-14 11:52 | 52.40602 | 4.37560 | 34188 ft | 411 kts | 317° |